createdAt,value
2023-01-19T00:00:32.651Z,99485.22
2023-01-19T00:03:02.640Z,99510.09
2023-01-19T00:05:30.030Z,99489.69
2023-01-19T00:07:57.155Z,99484.78
2023-01-19T00:10:24.201Z,99495.19
2023-01-19T00:12:53.641Z,99499.13
2023-01-19T00:15:20.612Z,99489.56
2023-01-19T00:17:53.433Z,99490.13
2023-01-19T00:20:20.282Z,99501.38
2023-01-19T00:22:51.098Z,99498.84
2023-01-19T00:25:18.163Z,99519.06
2023-01-19T00:27:49.369Z,99500.09
2023-01-19T00:30:18.900Z,99503.63
2023-01-19T00:32:45.746Z,99507.84
2023-01-19T00:35:12.660Z,99514.00
2023-01-19T00:37:46.063Z,99493.66
2023-01-19T00:40:14.164Z,99497.28
2023-01-19T00:42:48.530Z,99493.78
2023-01-19T00:45:19.772Z,99496.56
2023-01-19T00:47:48.834Z,99502.88
2023-01-19T00:50:19.078Z,99504.41
2023-01-19T00:52:48.489Z,99509.34
2023-01-19T00:55:16.707Z,99512.41
2023-01-19T00:57:46.373Z,99507.38
2023-01-19T01:00:19.456Z,99503.28
2023-01-19T01:02:48.540Z,99506.41
2023-01-19T01:05:18.776Z,99505.41
2023-01-19T01:07:49.830Z,99513.38
2023-01-19T01:10:27.169Z,99508.53
2023-01-19T01:12:56.665Z,99498.25
2023-01-19T01:15:26.466Z,99512.97
2023-01-19T01:17:53.929Z,99509.41
2023-01-19T01:20:27.769Z,99506.66
2023-01-19T01:22:56.644Z,99512.84
2023-01-19T01:25:26.702Z,99504.97
2023-01-19T01:27:54.940Z,99508.75
2023-01-19T01:30:27.854Z,99505.88
2023-01-19T01:33:00.915Z,99511.34
2023-01-19T01:35:39.742Z,99500.28
2023-01-19T01:38:09.674Z,99533.06
2023-01-19T01:40:43.510Z,99508.25
2023-01-19T01:43:21.349Z,99504.47
2023-01-19T01:45:49.379Z,99513.38
2023-01-19T01:48:28.622Z,99528.69
2023-01-19T01:51:25.645Z,99522.59
2023-01-19T01:54:19.497Z,99504.47
2023-01-19T01:57:03.919Z,99520.94
2023-01-19T01:59:57.070Z,99508.53
2023-01-19T02:02:46.617Z,99518.31
2023-01-19T02:05:30.786Z,99508.03
2023-01-19T02:08:44.191Z,99526.03
2023-01-19T02:11:30.823Z,99510.22
2023-01-19T02:13:58.601Z,99509.19
2023-01-19T02:16:30.363Z,99490.34
2023-01-19T02:19:04.913Z,99509.75
2023-01-19T02:22:04.526Z,99499.47
2023-01-19T02:24:38.065Z,99494.53
2023-01-19T02:27:10.203Z,99485.38
2023-01-19T02:29:38.209Z,99510.03
2023-01-19T02:32:08.828Z,99477.41
2023-01-19T02:34:45.784Z,99479.03
2023-01-19T02:37:18.690Z,99473.88
2023-01-19T02:40:04.502Z,99478.66
2023-01-19T02:42:51.001Z,99488.09
2023-01-19T02:45:24.408Z,99483.44
2023-01-19T02:47:54.233Z,99482.28
2023-01-19T02:50:53.546Z,99480.94
2023-01-19T02:53:46.585Z,99477.34
2023-01-19T02:57:20.840Z,99476.94
2023-01-19T03:00:31.559Z,99475.13
2023-01-19T03:04:05.821Z,99478.81
2023-01-19T03:07:21.898Z,99468.38
2023-01-19T03:10:25.587Z,99470.75
2023-01-19T03:14:03.289Z,99463.91
2023-01-19T03:17:11.815Z,99462.19
2023-01-19T03:19:52.206Z,99455.00
2023-01-19T03:22:31.824Z,99466.38
2023-01-19T03:25:04.774Z,99459.75
2023-01-19T03:27:45.820Z,99463.53
2023-01-19T03:31:10.432Z,99478.84
2023-01-19T03:33:52.697Z,99483.72
2023-01-19T03:36:40.929Z,99474.19
2023-01-19T03:39:25.087Z,99489.66
2023-01-19T03:42:16.076Z,99477.63
2023-01-19T03:45:04.101Z,99485.34
2023-01-19T03:47:37.142Z,99483.78
2023-01-19T03:50:18.212Z,99488.47
2023-01-19T03:53:15.788Z,99483.16
2023-01-19T03:56:04.336Z,99489.13
2023-01-19T03:58:35.965Z,99487.34
2023-01-19T04:01:06.907Z,99486.19
2023-01-19T04:03:44.888Z,99491.09
2023-01-19T04:06:16.582Z,99482.34
2023-01-19T04:08:47.352Z,99495.50
2023-01-19T04:11:27.495Z,99488.84
2023-01-19T04:14:02.007Z,99491.28
2023-01-19T04:16:36.215Z,99496.16
2023-01-19T04:19:03.524Z,99498.06
2023-01-19T04:21:44.036Z,99485.00
2023-01-19T04:24:12.123Z,99491.94
2023-01-19T04:26:49.420Z,99488.59
2023-01-19T04:29:19.946Z,99477.97
2023-01-19T04:32:02.623Z,99482.44
2023-01-19T04:34:38.977Z,99477.47
2023-01-19T04:37:14.949Z,99480.66
2023-01-19T04:39:51.491Z,99485.91
2023-01-19T04:42:35.581Z,99481.94
2023-01-19T04:45:03.673Z,99491.41
2023-01-19T04:47:34.025Z,99478.88
2023-01-19T04:50:23.083Z,99481.31
2023-01-19T04:52:51.094Z,99469.91
2023-01-19T04:55:28.676Z,99474.31
2023-01-19T04:57:59.396Z,99472.69
2023-01-19T05:00:34.016Z,99482.00
2023-01-19T05:03:06.292Z,99473.91
2023-01-19T05:05:42.436Z,99471.53
2023-01-19T05:08:10.087Z,99486.00
2023-01-19T05:10:40.734Z,99484.28
2023-01-19T05:13:37.368Z,99490.84
2023-01-19T05:16:15.175Z,99493.09
2023-01-19T05:18:51.527Z,99488.53
2023-01-19T05:21:27.988Z,99487.72
2023-01-19T05:24:03.402Z,99490.66
2023-01-19T05:26:46.193Z,99490.19
2023-01-19T05:29:14.047Z,99505.38
2023-01-19T05:31:42.085Z,99505.03
2023-01-19T05:34:24.140Z,99505.75
2023-01-19T05:37:01.907Z,99506.78
2023-01-19T05:39:32.843Z,99503.59
2023-01-19T05:42:05.522Z,99504.22
2023-01-19T05:44:36.356Z,99501.22
2023-01-19T05:47:08.638Z,99500.63
2023-01-19T05:49:41.092Z,99502.59
2023-01-19T05:52:19.617Z,99510.56
2023-01-19T05:54:56.803Z,99510.34
2023-01-19T05:57:27.303Z,99511.91
2023-01-19T06:00:06.640Z,99500.41
2023-01-19T06:02:36.793Z,99507.44
2023-01-19T06:05:16.303Z,99507.34
2023-01-19T06:07:49.538Z,99511.84
2023-01-19T06:10:19.377Z,99519.41
2023-01-19T06:12:55.113Z,99521.50
2023-01-19T06:15:38.039Z,99520.06
2023-01-19T06:18:06.097Z,99529.75
2023-01-19T06:20:50.991Z,99532.72
2023-01-19T06:23:21.488Z,99531.97
2023-01-19T06:25:50.703Z,99527.88
2023-01-19T06:28:22.578Z,99527.59
2023-01-19T06:30:57.417Z,99532.44
2023-01-19T06:33:30.890Z,99529.34
2023-01-19T06:35:58.652Z,99539.31
2023-01-19T06:38:26.114Z,99544.88
2023-01-19T06:40:59.134Z,99548.44
2023-01-19T06:43:31.957Z,99548.69
2023-01-19T06:46:01.269Z,99551.22
2023-01-19T06:48:29.109Z,99549.28
2023-01-19T06:51:00.859Z,99555.19
2023-01-19T06:53:51.267Z,99553.56
2023-01-19T06:56:24.704Z,99554.69
2023-01-19T06:59:10.095Z,99570.28
2023-01-19T07:01:46.980Z,99569.69
2023-01-19T07:04:23.832Z,99578.88
2023-01-19T07:07:00.536Z,99580.28
2023-01-19T07:09:28.455Z,99578.34
2023-01-19T07:12:05.662Z,99576.38
2023-01-19T07:14:39.670Z,99579.50
2023-01-19T07:17:13.351Z,99584.38
2023-01-19T07:19:44.893Z,99599.84
2023-01-19T07:22:19.111Z,99589.84
2023-01-19T07:24:54.614Z,99596.63
2023-01-19T07:27:21.836Z,99601.31
2023-01-19T07:29:49.767Z,99601.63
2023-01-19T07:32:17.071Z,99600.19
2023-01-19T07:34:49.745Z,99601.44
2023-01-19T07:37:20.895Z,99612.22
2023-01-19T07:39:48.414Z,99599.59
2023-01-19T07:42:15.722Z,99611.25
2023-01-19T07:44:52.135Z,99614.03
2023-01-19T07:47:19.898Z,99614.59
2023-01-19T07:49:47.206Z,99619.63
2023-01-19T07:52:17.990Z,99620.69
2023-01-19T07:54:50.979Z,99623.59
2023-01-19T07:57:23.708Z,99618.84
2023-01-19T07:59:59.763Z,99614.19
2023-01-19T08:02:27.640Z,99630.66
2023-01-19T08:04:57.605Z,99624.84
2023-01-19T08:07:31.410Z,99628.41
2023-01-19T08:10:05.222Z,99632.44
2023-01-19T08:12:44.773Z,99630.63
2023-01-19T08:15:18.306Z,99641.06
2023-01-19T08:17:48.510Z,99644.44
2023-01-19T08:20:16.154Z,99653.44
2023-01-19T08:22:46.224Z,99649.88
2023-01-19T08:25:24.762Z,99656.13
2023-01-19T08:28:07.618Z,99654.19
2023-01-19T08:30:53.526Z,99655.75
2023-01-19T08:33:24.290Z,99657.88
2023-01-19T08:35:53.659Z,99665.94
2023-01-19T08:38:22.893Z,99659.28
2023-01-19T08:40:49.779Z,99663.59
2023-01-19T08:43:17.555Z,99665.22
2023-01-19T08:45:51.196Z,99665.56
2023-01-19T08:48:26.887Z,99667.00
2023-01-19T08:50:56.571Z,99664.97
2023-01-19T08:53:26.846Z,99671.41
2023-01-19T08:56:01.441Z,99662.69
2023-01-19T08:58:28.958Z,99667.09
2023-01-19T09:00:59.885Z,99674.19
2023-01-19T09:03:27.121Z,99672.72
2023-01-19T09:05:56.489Z,99680.22
2023-01-19T09:08:25.692Z,99678.59
2023-01-19T09:10:52.848Z,99690.88
2023-01-19T09:13:20.622Z,99681.97
2023-01-19T09:15:52.527Z,99685.72
2023-01-19T09:18:22.418Z,99689.56
2023-01-19T09:20:54.949Z,99693.34
2023-01-19T09:23:24.333Z,99696.97
2023-01-19T09:25:57.875Z,99689.63
2023-01-19T09:28:27.653Z,99702.94
2023-01-19T09:30:59.603Z,99692.97
2023-01-19T09:33:30.998Z,99705.00
2023-01-19T09:35:58.064Z,99713.13
2023-01-19T09:38:25.904Z,99703.63
2023-01-19T09:40:57.171Z,99711.75
2023-01-19T09:43:43.188Z,99711.72
2023-01-19T09:46:15.305Z,99711.38
2023-01-19T09:49:01.437Z,99709.63
2023-01-19T09:51:35.215Z,99713.72
2023-01-19T09:54:49.870Z,99702.56
2023-01-19T09:57:16.884Z,99714.69
2023-01-19T09:59:50.073Z,99717.16
2023-01-19T10:02:45.713Z,99721.88
2023-01-19T10:05:36.411Z,99721.31
2023-01-19T10:08:09.670Z,99728.03
2023-01-19T10:10:41.093Z,99730.34
2023-01-19T10:13:44.111Z,99733.78
2023-01-19T10:16:41.731Z,99726.28
2023-01-19T10:19:38.134Z,99730.63
2023-01-19T10:22:19.536Z,99732.34
2023-01-19T10:24:49.084Z,99726.16
2023-01-19T10:27:24.882Z,99732.50
2023-01-19T10:29:54.622Z,99716.25
2023-01-19T10:32:30.378Z,99720.59
2023-01-19T10:34:59.844Z,99722.66
2023-01-19T10:37:40.689Z,99722.75
2023-01-19T10:40:10.548Z,99722.31
2023-01-19T10:42:41.053Z,99724.69
2023-01-19T10:45:21.101Z,99724.16
2023-01-19T10:47:49.796Z,99714.63
2023-01-19T10:50:29.068Z,99723.84
2023-01-19T10:53:00.437Z,99722.47
2023-01-19T10:55:31.583Z,99714.03
2023-01-19T10:58:04.146Z,99712.22
2023-01-19T11:00:39.239Z,99713.38
2023-01-19T11:03:31.955Z,99723.94
2023-01-19T11:06:15.438Z,99720.22
2023-01-19T11:08:44.850Z,99716.69
2023-01-19T11:11:14.488Z,99725.09
2023-01-19T11:13:43.653Z,99725.69
2023-01-19T11:16:29.679Z,99722.91
2023-01-19T11:19:02.051Z,99735.13
2023-01-19T11:21:31.759Z,99725.41
2023-01-19T11:24:05.370Z,99724.56
2023-01-19T11:26:47.897Z,99732.34
2023-01-19T11:29:23.165Z,99731.25
2023-01-19T11:31:51.784Z,99729.22
2023-01-19T11:34:38.685Z,99734.25
2023-01-19T11:37:31.809Z,99727.84
2023-01-19T11:40:04.562Z,99731.84
2023-01-19T11:42:34.275Z,99737.94
2023-01-19T11:45:17.480Z,99737.75
2023-01-19T11:47:52.436Z,99729.75
2023-01-19T11:50:39.025Z,99736.06
2023-01-19T11:53:19.187Z,99738.50
2023-01-19T11:55:59.127Z,99742.66
2023-01-19T11:58:27.057Z,99749.84
2023-01-19T12:01:02.339Z,99751.72
2023-01-19T12:03:44.532Z,99756.41
2023-01-19T12:06:35.913Z,99752.28
2023-01-19T12:09:13.266Z,99760.19
2023-01-19T12:11:57.834Z,99762.41
2023-01-19T12:14:46.515Z,99756.75
2023-01-19T12:17:29.079Z,99760.25
2023-01-19T12:20:08.031Z,99766.38
2023-01-19T12:22:43.469Z,99755.38
2023-01-19T12:25:20.896Z,99761.03
2023-01-19T12:27:52.388Z,99758.81
2023-01-19T12:30:32.131Z,99769.50
2023-01-19T12:33:41.435Z,99777.06
2023-01-19T12:36:26.742Z,99776.22
2023-01-19T12:39:05.778Z,99774.75
2023-01-19T12:41:38.365Z,99779.22
2023-01-19T12:44:11.390Z,99787.19
2023-01-19T12:46:45.994Z,99777.69
2023-01-19T12:49:29.470Z,99775.69
2023-01-19T12:52:19.705Z,99773.28
2023-01-19T12:55:01.689Z,99775.84
2023-01-19T12:57:47.213Z,99781.03
2023-01-19T13:00:26.400Z,99778.97
2023-01-19T13:03:00.272Z,99785.41
2023-01-19T13:05:33.603Z,99781.19
2023-01-19T13:08:06.780Z,99788.66
2023-01-19T13:11:10.815Z,99797.94
2023-01-19T13:13:38.056Z,99797.06
2023-01-19T13:16:20.731Z,99795.09
2023-01-19T13:18:54.633Z,99799.00
2023-01-19T13:21:32.558Z,99795.75
2023-01-19T13:24:12.933Z,99798.91
2023-01-19T13:26:52.750Z,99805.75
2023-01-19T13:29:30.449Z,99805.75
2023-01-19T13:32:03.632Z,99807.13
2023-01-19T13:34:48.724Z,99811.13
2023-01-19T13:37:21.939Z,99816.69
2023-01-19T13:39:52.513Z,99812.16
2023-01-19T13:42:30.071Z,99810.63
2023-01-19T13:45:02.036Z,99820.16
2023-01-19T13:47:44.642Z,99819.84
2023-01-19T13:50:31.450Z,99823.72
2023-01-19T13:52:59.522Z,99826.59
2023-01-19T13:55:31.613Z,99827.63
2023-01-19T13:58:01.566Z,99813.09
2023-01-19T14:00:34.114Z,99820.16
2023-01-19T14:03:16.527Z,99812.09
2023-01-19T14:05:44.832Z,99805.50
2023-01-19T14:08:18.352Z,99810.97
2023-01-19T14:10:54.133Z,99822.78
2023-01-19T14:13:26.377Z,99824.00
2023-01-19T14:16:00.049Z,99830.44
2023-01-19T14:18:35.797Z,99836.72
2023-01-19T14:21:16.283Z,99845.25
2023-01-19T14:23:49.101Z,99852.50
2023-01-19T14:26:46.931Z,99860.34
2023-01-19T14:29:33.271Z,99856.84
2023-01-19T14:32:13.831Z,99865.84
2023-01-19T14:34:47.439Z,99865.69
2023-01-19T14:37:47.267Z,99871.53
2023-01-19T14:40:26.989Z,99874.06
2023-01-19T14:43:06.260Z,99875.34
2023-01-19T14:45:45.463Z,99880.19
2023-01-19T14:48:23.112Z,99881.81
2023-01-19T14:51:03.543Z,99876.91
2023-01-19T14:53:40.924Z,99889.50
2023-01-19T14:56:09.655Z,99899.09
2023-01-19T14:58:36.786Z,99894.28
2023-01-19T15:01:06.861Z,99899.34
2023-01-19T15:03:44.006Z,99903.25
2023-01-19T15:06:16.514Z,99903.41
2023-01-19T15:08:47.451Z,99899.88
2023-01-19T15:11:33.878Z,99910.38
2023-01-19T15:14:02.021Z,99905.41
2023-01-19T15:16:33.321Z,99913.84
2023-01-19T15:19:03.956Z,99917.38
2023-01-19T15:21:31.077Z,99922.22
2023-01-19T15:23:58.767Z,99918.47
2023-01-19T15:26:27.647Z,99921.38
2023-01-19T15:28:58.897Z,99935.66
2023-01-19T15:31:26.884Z,99935.03
2023-01-19T15:33:54.294Z,99937.22
2023-01-19T15:36:24.133Z,99939.09
2023-01-19T15:38:51.317Z,99942.03
2023-01-19T16:17:24.519Z,99995.84
2023-01-19T16:19:57.175Z,99986.25
2023-01-19T16:22:24.200Z,99994.03
2023-01-19T16:24:53.374Z,99988.78
2023-01-19T16:27:24.560Z,99989.34
2023-01-19T16:29:51.839Z,99997.81
2023-01-19T16:32:19.299Z,100006.72
2023-01-19T16:34:46.413Z,100000.34
2023-01-19T16:37:16.345Z,100002.53
2023-01-19T16:39:45.741Z,100005.78
2023-01-19T16:42:16.509Z,100006.06
2023-01-19T16:44:43.474Z,100018.56
2023-01-19T16:47:15.085Z,100022.66
2023-01-19T16:49:41.992Z,100027.75
2023-01-19T16:52:11.429Z,100032.66
2023-01-19T16:54:43.093Z,100026.91
2023-01-19T16:57:11.541Z,100036.22
2023-01-19T16:59:39.763Z,100035.66
2023-01-19T17:02:07.702Z,100039.75
2023-01-19T17:04:34.732Z,100042.16
2023-01-19T17:07:01.579Z,100041.88
2023-01-19T17:09:28.996Z,100053.03
2023-01-19T17:11:55.990Z,100047.53
2023-01-19T17:14:22.913Z,100046.97
2023-01-19T17:16:50.185Z,100056.28
2023-01-19T17:19:22.236Z,100056.84
2023-01-19T17:21:51.985Z,100059.25
2023-01-19T17:24:18.978Z,100068.97
2023-01-19T17:26:48.490Z,100060.94
2023-01-19T17:29:16.664Z,100060.22
2023-01-19T17:31:44.431Z,100069.69
2023-01-19T17:34:13.954Z,100072.50
2023-01-19T17:36:41.135Z,100070.94
2023-01-19T17:39:14.610Z,100072.34
2023-01-19T17:41:46.163Z,100077.88
2023-01-19T17:44:16.098Z,100089.28
2023-01-19T17:46:43.014Z,100093.38
2023-01-19T17:49:11.381Z,100089.41
2023-01-19T17:51:38.472Z,100089.56
2023-01-19T17:54:05.788Z,100096.75
2023-01-19T17:56:36.887Z,100103.53
2023-01-19T17:59:06.600Z,100104.94
2023-01-19T18:01:34.895Z,100093.09
2023-01-19T18:04:03.959Z,100099.16
2023-01-19T18:06:33.912Z,100098.88
2023-01-19T18:09:06.976Z,100102.25
2023-01-19T18:11:35.148Z,100105.78
2023-01-19T18:14:05.423Z,100112.94
2023-01-19T18:16:32.634Z,100105.47
2023-01-19T18:18:59.668Z,100108.16
2023-01-19T18:21:30.456Z,100110.41
2023-01-19T18:24:05.941Z,100113.50
2023-01-19T18:26:34.743Z,100121.72
2023-01-19T18:29:01.916Z,100117.34
2023-01-19T18:31:29.022Z,100114.13
2023-01-19T18:33:58.560Z,100122.97
2023-01-19T18:36:33.315Z,100120.00
2023-01-19T18:39:02.768Z,100131.81
2023-01-19T18:41:30.549Z,100131.38
2023-01-19T18:43:59.830Z,100141.34
2023-01-19T18:46:27.900Z,100133.13
2023-01-19T18:48:55.043Z,100131.75
2023-01-19T18:51:25.023Z,100129.50
2023-01-19T18:53:55.448Z,100134.72
2023-01-19T18:56:22.539Z,100148.97
2023-01-19T18:58:53.973Z,100139.88
2023-01-19T19:01:22.789Z,100144.16
2023-01-19T19:03:50.125Z,100140.38
2023-01-19T19:06:20.538Z,100152.06
2023-01-19T19:08:51.363Z,100151.91
2023-01-19T19:11:23.248Z,100154.31
2023-01-19T19:13:55.743Z,100159.41
2023-01-19T19:16:23.350Z,100163.91
2023-01-19T19:18:50.546Z,100161.06
2023-01-19T19:21:20.266Z,100155.13
2023-01-19T19:23:56.183Z,100157.63
2023-01-19T19:26:24.671Z,100150.75
2023-01-19T19:28:52.023Z,100156.59
2023-01-19T19:31:21.791Z,100161.75
2023-01-19T19:33:50.933Z,100165.50
2023-01-19T19:36:24.302Z,100169.75
2023-01-19T19:38:54.262Z,100165.75
2023-01-19T19:41:26.895Z,100173.66
2023-01-19T19:43:57.871Z,100170.16
2023-01-19T19:46:26.839Z,100174.19
2023-01-19T19:48:54.500Z,100172.25
2023-01-19T19:51:27.494Z,100177.66
2023-01-19T19:53:59.711Z,100186.53
2023-01-19T19:56:31.838Z,100180.41
2023-01-19T19:59:01.993Z,100186.75
2023-01-19T20:01:33.526Z,100186.09
2023-01-19T20:04:08.346Z,100186.81
2023-01-19T20:06:39.094Z,100186.66
2023-01-19T20:09:09.979Z,100191.03
2023-01-19T20:11:40.523Z,100195.13
2023-01-19T20:14:12.512Z,100202.47
2023-01-19T20:16:41.453Z,100199.13
2023-01-19T20:19:11.800Z,100199.84
2023-01-19T20:21:45.241Z,100205.34
2023-01-19T20:24:16.708Z,100215.25
2023-01-19T20:26:53.176Z,100220.94
2023-01-19T20:29:21.106Z,100217.78
2023-01-19T20:31:51.938Z,100228.22
2023-01-19T20:34:23.036Z,100229.66
2023-01-19T20:36:51.632Z,100218.91
2023-01-19T20:39:19.843Z,100234.75
2023-01-19T20:41:50.116Z,100236.19
2023-01-19T20:44:22.387Z,100247.34
2023-01-19T20:46:54.880Z,100243.97
2023-01-19T20:49:29.601Z,100241.56
2023-01-19T20:51:56.954Z,100250.88
2023-01-19T20:54:30.493Z,100239.50
2023-01-19T20:56:58.064Z,100252.81
2023-01-19T20:59:41.117Z,100257.00
2023-01-19T21:02:14.958Z,100253.84
2023-01-19T21:04:45.526Z,100254.72
2023-01-19T21:07:17.004Z,100262.88
2023-01-19T21:09:44.082Z,100264.38
2023-01-19T21:12:11.502Z,100276.22
2023-01-19T21:14:42.466Z,100282.56
2023-01-19T21:17:09.995Z,100292.81
2023-01-19T21:19:37.234Z,100291.16
2023-01-19T21:22:04.477Z,100291.88
2023-01-19T21:24:31.631Z,100292.31
2023-01-19T21:27:04.189Z,100293.91
2023-01-19T21:29:33.392Z,100287.72
2023-01-19T21:32:01.283Z,100294.00
2023-01-19T21:34:28.302Z,100292.28
2023-01-19T21:36:57.436Z,100300.38
2023-01-19T21:39:26.787Z,100293.41
2023-01-19T21:41:53.817Z,100303.75
2023-01-19T21:44:21.209Z,100299.34
2023-01-19T21:46:48.368Z,100312.94
2023-01-19T21:49:20.212Z,100322.53
2023-01-19T21:51:50.675Z,100325.16
2023-01-19T21:54:19.886Z,100330.69
2023-01-19T21:56:46.832Z,100324.06
2023-01-19T21:59:16.770Z,100341.03
2023-01-19T22:01:45.979Z,100338.38
2023-01-19T22:04:12.978Z,100344.44
2023-01-19T22:06:40.136Z,100351.88
2023-01-19T22:09:09.264Z,100341.16
2023-01-19T22:11:36.419Z,100342.53
2023-01-19T22:14:05.820Z,100351.63
2023-01-19T22:16:32.767Z,100351.63
2023-01-19T22:19:02.303Z,100351.88
2023-01-19T22:21:35.889Z,100360.88
2023-01-19T22:24:05.389Z,100360.16
2023-01-19T22:26:36.947Z,100366.72
2023-01-19T22:29:10.907Z,100374.50
2023-01-19T22:31:39.135Z,100369.59
2023-01-19T22:34:10.384Z,100368.28
2023-01-19T22:36:41.048Z,100367.81
2023-01-19T22:39:11.471Z,100378.50
2023-01-19T22:41:41.918Z,100381.53
2023-01-19T22:44:15.499Z,100382.75
2023-01-19T22:46:43.368Z,100385.66
2023-01-19T22:49:14.242Z,100377.06
2023-01-19T22:51:41.824Z,100384.00
2023-01-19T22:54:09.664Z,100392.03
2023-01-19T22:56:39.423Z,100386.88
2023-01-19T22:59:07.219Z,100388.78
2023-01-19T23:01:43.434Z,100394.13
2023-01-19T23:04:14.727Z,100394.13
2023-01-19T23:06:49.189Z,100393.53
2023-01-19T23:09:18.662Z,100396.06
2023-01-19T23:11:51.309Z,100398.72
2023-01-19T23:14:26.940Z,100395.97
2023-01-19T23:16:53.901Z,100396.44
2023-01-19T23:19:25.813Z,100397.66
2023-01-19T23:21:55.160Z,100406.69
2023-01-19T23:24:22.160Z,100409.56
2023-01-19T23:26:51.962Z,100403.97
2023-01-19T23:29:19.692Z,100409.59
2023-01-19T23:31:49.424Z,100414.22
2023-01-19T23:34:17.401Z,100417.97
2023-01-19T23:36:44.699Z,100411.69
2023-01-19T23:39:18.905Z,100418.22
2023-01-19T23:41:46.587Z,100423.59
2023-01-19T23:44:16.993Z,100426.34
2023-01-19T23:46:49.059Z,100435.97
2023-01-19T23:49:17.073Z,100434.50
2023-01-19T23:51:44.137Z,100433.06
2023-01-19T23:54:12.302Z,100440.59
2023-01-19T23:56:42.863Z,100439.00
2023-01-19T23:59:13.412Z,100447.75
